sensor_id;sensor_type;location;lat;lon;timestamp;P1;durP1;ratioP1;P2;durP2;ratioP2
7821;SDS011;3956;50.558;9.678;2023-06-10T00:01:31;9.60;;;8.60;;
7821;SDS011;3956;50.558;9.678;2023-06-10T00:04:01;11.57;;;8.60;;
7821;SDS011;3956;50.558;9.678;2023-06-10T00:06:34;10.77;;;8.30;;
7821;SDS011;3956;50.558;9.678;2023-06-10T00:09:03;10.93;;;8.90;;
7821;SDS011;3956;50.558;9.678;2023-06-10T00:11:33;12.57;;;9.03;;
7821;SDS011;3956;50.558;9.678;2023-06-10T00:14:02;9.40;;;8.10;;
7821;SDS011;3956;50.558;9.678;2023-06-10T00:16:32;13.77;;;9.13;;
7821;SDS011;3956;50.558;9.678;2023-06-10T00:19:05;10.82;;;9.57;;
7821;SDS011;3956;50.558;9.678;2023-06-10T00:21:36;16.27;;;9.03;;
7821;SDS011;3956;50.558;9.678;2023-06-10T00:24:08;11.73;;;9.70;;
7821;SDS011;3956;50.558;9.678;2023-06-10T00:26:41;10.53;;;9.20;;
7821;SDS011;3956;50.558;9.678;2023-06-10T00:29:10;9.87;;;8.87;;
7821;SDS011;3956;50.558;9.678;2023-06-10T00:31:44;10.47;;;9.03;;
7821;SDS011;3956;50.558;9.678;2023-06-10T00:34:13;9.23;;;8.30;;
7821;SDS011;3956;50.558;9.678;2023-06-10T00:36:45;9.90;;;8.90;;
7821;SDS011;3956;50.558;9.678;2023-06-10T00:39:15;10.77;;;9.17;;
7821;SDS011;3956;50.558;9.678;2023-06-10T00:41:45;10.83;;;8.97;;
7821;SDS011;3956;50.558;9.678;2023-06-10T00:44:15;10.80;;;9.53;;
7821;SDS011;3956;50.558;9.678;2023-06-10T00:46:44;10.50;;;9.40;;
7821;SDS011;3956;50.558;9.678;2023-06-10T00:49:14;10.67;;;9.53;;
7821;SDS011;3956;50.558;9.678;2023-06-10T00:51:46;11.70;;;9.33;;
7821;SDS011;3956;50.558;9.678;2023-06-10T00:54:14;11.17;;;9.77;;
7821;SDS011;3956;50.558;9.678;2023-06-10T00:56:50;11.10;;;9.33;;
7821;SDS011;3956;50.558;9.678;2023-06-10T00:59:22;12.80;;;10.53;;
7821;SDS011;3956;50.558;9.678;2023-06-10T01:01:53;14.60;;;10.07;;
7821;SDS011;3956;50.558;9.678;2023-06-10T01:04:39;12.30;;;9.70;;
7821;SDS011;3956;50.558;9.678;2023-06-10T01:07:21;11.20;;;10.00;;
7821;SDS011;3956;50.558;9.678;2023-06-10T01:09:59;11.00;;;9.70;;
7821;SDS011;3956;50.558;9.678;2023-06-10T01:12:39;12.43;;;10.70;;
7821;SDS011;3956;50.558;9.678;2023-06-10T01:16:02;12.07;;;10.07;;
7821;SDS011;3956;50.558;9.678;2023-06-10T01:18:40;13.18;;;10.82;;
7821;SDS011;3956;50.558;9.678;2023-06-10T01:21:15;10.87;;;9.77;;
7821;SDS011;3956;50.558;9.678;2023-06-10T01:23:52;12.63;;;10.20;;
7821;SDS011;3956;50.558;9.678;2023-06-10T01:26:25;14.10;;;10.33;;
7821;SDS011;3956;50.558;9.678;2023-06-10T01:28:58;13.13;;;9.47;;
7821;SDS011;3956;50.558;9.678;2023-06-10T01:31:35;10.87;;;9.77;;
7821;SDS011;3956;50.558;9.678;2023-06-10T01:34:13;11.70;;;10.50;;
7821;SDS011;3956;50.558;9.678;2023-06-10T01:36:48;11.83;;;10.00;;
7821;SDS011;3956;50.558;9.678;2023-06-10T01:39:18;11.33;;;9.90;;
7821;SDS011;3956;50.558;9.678;2023-06-10T01:41:48;12.40;;;9.60;;
7821;SDS011;3956;50.558;9.678;2023-06-10T01:44:17;11.43;;;10.23;;
7821;SDS011;3956;50.558;9.678;2023-06-10T01:46:50;12.17;;;10.43;;
7821;SDS011;3956;50.558;9.678;2023-06-10T01:49:19;12.13;;;10.10;;
7821;SDS011;3956;50.558;9.678;2023-06-10T01:51:54;11.90;;;9.47;;
7821;SDS011;3956;50.558;9.678;2023-06-10T01:54:24;12.67;;;10.00;;
7821;SDS011;3956;50.558;9.678;2023-06-10T01:57:01;14.43;;;9.83;;
7821;SDS011;3956;50.558;9.678;2023-06-10T01:59:29;11.67;;;10.10;;
7821;SDS011;3956;50.558;9.678;2023-06-10T02:01:57;11.20;;;10.10;;
7821;SDS011;3956;50.558;9.678;2023-06-10T02:04:26;14.33;;;10.67;;
7821;SDS011;3956;50.558;9.678;2023-06-10T02:06:57;15.33;;;11.03;;
7821;SDS011;3956;50.558;9.678;2023-06-10T02:09:31;14.97;;;10.43;;
7821;SDS011;3956;50.558;9.678;2023-06-10T02:12:03;11.23;;;10.13;;
7821;SDS011;3956;50.558;9.678;2023-06-10T02:14:33;15.40;;;11.20;;
7821;SDS011;3956;50.558;9.678;2023-06-10T02:17:08;12.27;;;10.27;;
7821;SDS011;3956;50.558;9.678;2023-06-10T02:19:40;12.13;;;9.90;;
7821;SDS011;3956;50.558;9.678;2023-06-10T02:22:11;10.93;;;9.80;;
7821;SDS011;3956;50.558;9.678;2023-06-10T02:24:44;14.17;;;9.93;;
7821;SDS011;3956;50.558;9.678;2023-06-10T02:27:45;11.73;;;10.47;;
7821;SDS011;3956;50.558;9.678;2023-06-10T02:30:13;12.70;;;9.97;;
7821;SDS011;3956;50.558;9.678;2023-06-10T02:32:42;14.90;;;10.50;;
7821;SDS011;3956;50.558;9.678;2023-06-10T02:35:16;13.53;;;10.57;;
7821;SDS011;3956;50.558;9.678;2023-06-10T02:37:55;11.60;;;9.97;;
7821;SDS011;3956;50.558;9.678;2023-06-10T02:40:24;11.33;;;10.20;;
7821;SDS011;3956;50.558;9.678;2023-06-10T02:42:55;11.43;;;10.07;;
7821;SDS011;3956;50.558;9.678;2023-06-10T02:45:23;11.77;;;10.30;;
7821;SDS011;3956;50.558;9.678;2023-06-10T02:47:52;11.83;;;10.27;;
7821;SDS011;3956;50.558;9.678;2023-06-10T02:50:25;12.13;;;9.70;;
7821;SDS011;3956;50.558;9.678;2023-06-10T02:55:57;14.63;;;10.60;;
7821;SDS011;3956;50.558;9.678;2023-06-10T02:58:26;13.90;;;10.70;;
7821;SDS011;3956;50.558;9.678;2023-06-10T03:00:54;11.87;;;9.93;;
7821;SDS011;3956;50.558;9.678;2023-06-10T03:03:26;11.37;;;9.63;;
7821;SDS011;3956;50.558;9.678;2023-06-10T03:06:00;12.67;;;9.43;;
7821;SDS011;3956;50.558;9.678;2023-06-10T03:08:34;10.57;;;9.40;;
7821;SDS011;3956;50.558;9.678;2023-06-10T03:11:03;11.23;;;9.07;;
7821;SDS011;3956;50.558;9.678;2023-06-10T03:13:31;12.47;;;9.43;;
7821;SDS011;3956;50.558;9.678;2023-06-10T03:16:03;11.93;;;9.03;;
7821;SDS011;3956;50.558;9.678;2023-06-10T03:18:32;10.60;;;9.50;;
7821;SDS011;3956;50.558;9.678;2023-06-10T03:21:01;13.13;;;9.37;;
7821;SDS011;3956;50.558;9.678;2023-06-10T03:23:32;11.57;;;8.93;;
7821;SDS011;3956;50.558;9.678;2023-06-10T03:26:04;13.10;;;9.57;;
7821;SDS011;3956;50.558;9.678;2023-06-10T03:28:32;11.10;;;9.50;;
7821;SDS011;3956;50.558;9.678;2023-06-10T03:31:03;14.17;;;9.50;;
7821;SDS011;3956;50.558;9.678;2023-06-10T03:33:31;10.60;;;9.37;;
7821;SDS011;3956;50.558;9.678;2023-06-10T03:36:02;11.63;;;9.50;;
7821;SDS011;3956;50.558;9.678;2023-06-10T03:38:32;10.50;;;9.40;;
7821;SDS011;3956;50.558;9.678;2023-06-10T03:41:03;13.90;;;10.60;;
7821;SDS011;3956;50.558;9.678;2023-06-10T03:43:31;15.80;;;11.20;;
7821;SDS011;3956;50.558;9.678;2023-06-10T03:46:01;12.47;;;10.40;;
7821;SDS011;3956;50.558;9.678;2023-06-10T03:48:31;12.30;;;9.87;;
7821;SDS011;3956;50.558;9.678;2023-06-10T03:50:59;14.03;;;9.50;;
7821;SDS011;3956;50.558;9.678;2023-06-10T03:53:31;12.17;;;9.73;;
7821;SDS011;3956;50.558;9.678;2023-06-10T03:56:07;11.23;;;9.90;;
7821;SDS011;3956;50.558;9.678;2023-06-10T03:58:37;11.10;;;9.70;;
7821;SDS011;3956;50.558;9.678;2023-06-10T04:01:13;11.80;;;9.70;;
7821;SDS011;3956;50.558;9.678;2023-06-10T04:03:45;13.40;;;9.20;;
7821;SDS011;3956;50.558;9.678;2023-06-10T04:06:21;10.57;;;9.07;;
7821;SDS011;3956;50.558;9.678;2023-06-10T04:08:53;12.33;;;9.47;;
7821;SDS011;3956;50.558;9.678;2023-06-10T04:11:24;13.13;;;9.63;;
7821;SDS011;3956;50.558;9.678;2023-06-10T04:13:54;10.80;;;9.70;;
7821;SDS011;3956;50.558;9.678;2023-06-10T04:16:22;11.57;;;9.73;;
7821;SDS011;3956;50.558;9.678;2023-06-10T04:18:54;11.10;;;10.00;;
7821;SDS011;3956;50.558;9.678;2023-06-10T04:21:27;12.07;;;9.33;;
7821;SDS011;3956;50.558;9.678;2023-06-10T04:23:58;12.57;;;10.50;;
7821;SDS011;3956;50.558;9.678;2023-06-10T04:26:32;12.73;;;9.57;;
7821;SDS011;3956;50.558;9.678;2023-06-10T04:29:06;12.40;;;10.40;;
7821;SDS011;3956;50.558;9.678;2023-06-10T04:31:36;11.23;;;9.97;;
7821;SDS011;3956;50.558;9.678;2023-06-10T04:34:07;12.50;;;10.43;;
7821;SDS011;3956;50.558;9.678;2023-06-10T04:36:44;11.83;;;9.60;;
7821;SDS011;3956;50.558;9.678;2023-06-10T04:39:15;11.17;;;10.07;;
7821;SDS011;3956;50.558;9.678;2023-06-10T04:41:47;11.97;;;9.80;;
7821;SDS011;3956;50.558;9.678;2023-06-10T04:44:15;15.53;;;9.67;;
7821;SDS011;3956;50.558;9.678;2023-06-10T04:46:47;12.70;;;9.77;;
7821;SDS011;3956;50.558;9.678;2023-06-10T04:49:19;11.27;;;8.73;;
7821;SDS011;3956;50.558;9.678;2023-06-10T04:51:51;11.60;;;9.10;;
7821;SDS011;3956;50.558;9.678;2023-06-10T04:58:10;14.77;;;9.70;;
7821;SDS011;3956;50.558;9.678;2023-06-10T05:00:42;10.80;;;9.30;;
7821;SDS011;3956;50.558;9.678;2023-06-10T05:03:16;15.97;;;10.07;;
7821;SDS011;3956;50.558;9.678;2023-06-10T05:05:47;11.37;;;9.27;;
7821;SDS011;3956;50.558;9.678;2023-06-10T05:08:20;11.07;;;9.10;;
7821;SDS011;3956;50.558;9.678;2023-06-10T05:10:51;11.90;;;9.43;;
7821;SDS011;3956;50.558;9.678;2023-06-10T05:13:20;10.20;;;8.87;;
7821;SDS011;3956;50.558;9.678;2023-06-10T05:15:53;10.80;;;9.17;;
7821;SDS011;3956;50.558;9.678;2023-06-10T05:18:30;12.60;;;9.67;;
7821;SDS011;3956;50.558;9.678;2023-06-10T05:21:00;11.50;;;8.87;;
7821;SDS011;3956;50.558;9.678;2023-06-10T05:23:31;11.07;;;8.93;;
7821;SDS011;3956;50.558;9.678;2023-06-10T05:26:01;10.60;;;8.53;;
7821;SDS011;3956;50.558;9.678;2023-06-10T05:29:21;9.17;;;8.27;;
7821;SDS011;3956;50.558;9.678;2023-06-10T05:31:49;9.63;;;8.63;;
7821;SDS011;3956;50.558;9.678;2023-06-10T05:34:25;9.97;;;7.70;;
7821;SDS011;3956;50.558;9.678;2023-06-10T05:36:56;10.80;;;7.83;;
7821;SDS011;3956;50.558;9.678;2023-06-10T05:39:28;12.13;;;7.93;;
7821;SDS011;3956;50.558;9.678;2023-06-10T05:42:04;12.53;;;7.60;;
7821;SDS011;3956;50.558;9.678;2023-06-10T05:44:38;10.93;;;7.57;;
7821;SDS011;3956;50.558;9.678;2023-06-10T05:47:11;13.80;;;7.50;;
7821;SDS011;3956;50.558;9.678;2023-06-10T05:49:41;10.07;;;7.67;;
7821;SDS011;3956;50.558;9.678;2023-06-10T05:52:44;12.47;;;7.97;;
7821;SDS011;3956;50.558;9.678;2023-06-10T05:55:30;10.47;;;7.70;;
7821;SDS011;3956;50.558;9.678;2023-06-10T05:57:58;12.13;;;8.40;;
7821;SDS011;3956;50.558;9.678;2023-06-10T06:00:29;12.07;;;6.73;;
7821;SDS011;3956;50.558;9.678;2023-06-10T06:02:59;7.83;;;6.30;;
7821;SDS011;3956;50.558;9.678;2023-06-10T06:05:27;10.03;;;6.20;;
7821;SDS011;3956;50.558;9.678;2023-06-10T06:08:01;9.83;;;7.00;;
7821;SDS011;3956;50.558;9.678;2023-06-10T06:10:31;9.00;;;6.57;;
7821;SDS011;3956;50.558;9.678;2023-06-10T06:13:02;11.40;;;7.17;;
7821;SDS011;3956;50.558;9.678;2023-06-10T06:15:35;7.70;;;6.57;;
7821;SDS011;3956;50.558;9.678;2023-06-10T06:18:17;7.40;;;6.43;;
7821;SDS011;3956;50.558;9.678;2023-06-10T06:20:52;9.03;;;6.80;;
7821;SDS011;3956;50.558;9.678;2023-06-10T06:23:26;10.77;;;6.53;;
7821;SDS011;3956;50.558;9.678;2023-06-10T06:26:06;10.23;;;7.00;;
7821;SDS011;3956;50.558;9.678;2023-06-10T06:28:36;8.80;;;6.20;;
7821;SDS011;3956;50.558;9.678;2023-06-10T06:31:09;7.17;;;6.47;;
7821;SDS011;3956;50.558;9.678;2023-06-10T06:33:42;6.20;;;5.60;;
7821;SDS011;3956;50.558;9.678;2023-06-10T06:36:12;8.27;;;6.27;;
7821;SDS011;3956;50.558;9.678;2023-06-10T06:38:40;8.07;;;5.93;;
7821;SDS011;3956;50.558;9.678;2023-06-10T06:41:16;8.40;;;6.23;;
7821;SDS011;3956;50.558;9.678;2023-06-10T06:43:56;9.33;;;6.37;;
7821;SDS011;3956;50.558;9.678;2023-06-10T06:46:28;6.60;;;5.90;;
7821;SDS011;3956;50.558;9.678;2023-06-10T06:48:57;7.40;;;4.63;;
7821;SDS011;3956;50.558;9.678;2023-06-10T06:51:27;8.57;;;5.60;;
7821;SDS011;3956;50.558;9.678;2023-06-10T06:53:55;6.60;;;5.10;;
7821;SDS011;3956;50.558;9.678;2023-06-10T06:56:26;9.90;;;4.60;;
7821;SDS011;3956;50.558;9.678;2023-06-10T06:58:55;8.80;;;5.07;;
7821;SDS011;3956;50.558;9.678;2023-06-10T07:01:43;8.97;;;5.30;;
7821;SDS011;3956;50.558;9.678;2023-06-10T07:04:14;9.57;;;4.63;;
7821;SDS011;3956;50.558;9.678;2023-06-10T07:06:43;6.80;;;5.17;;
7821;SDS011;3956;50.558;9.678;2023-06-10T07:09:11;6.57;;;4.67;;
7821;SDS011;3956;50.558;9.678;2023-06-10T07:11:41;9.77;;;4.90;;
7821;SDS011;3956;50.558;9.678;2023-06-10T07:14:15;5.47;;;4.70;;
7821;SDS011;3956;50.558;9.678;2023-06-10T07:16:45;6.47;;;5.00;;
7821;SDS011;3956;50.558;9.678;2023-06-10T07:19:15;6.57;;;4.47;;
7821;SDS011;3956;50.558;9.678;2023-06-10T07:21:46;6.30;;;4.60;;
7821;SDS011;3956;50.558;9.678;2023-06-10T07:24:16;6.50;;;4.73;;
7821;SDS011;3956;50.558;9.678;2023-06-10T07:26:50;6.50;;;4.70;;
7821;SDS011;3956;50.558;9.678;2023-06-10T07:29:27;9.83;;;5.77;;
7821;SDS011;3956;50.558;9.678;2023-06-10T07:35:46;7.47;;;4.57;;
7821;SDS011;3956;50.558;9.678;2023-06-10T07:38:20;6.13;;;5.00;;
7821;SDS011;3956;50.558;9.678;2023-06-10T07:41:52;6.93;;;5.10;;
7821;SDS011;3956;50.558;9.678;2023-06-10T07:45:22;6.70;;;5.07;;
7821;SDS011;3956;50.558;9.678;2023-06-10T07:48:49;6.77;;;4.23;;
7821;SDS011;3956;50.558;9.678;2023-06-10T07:51:36;7.03;;;4.70;;
7821;SDS011;3956;50.558;9.678;2023-06-10T07:54:37;7.00;;;4.73;;
7821;SDS011;3956;50.558;9.678;2023-06-10T07:57:31;7.10;;;4.50;;
7821;SDS011;3956;50.558;9.678;2023-06-10T08:00:13;5.87;;;4.67;;
7821;SDS011;3956;50.558;9.678;2023-06-10T08:03:08;6.50;;;4.67;;
7821;SDS011;3956;50.558;9.678;2023-06-10T08:05:44;7.57;;;4.83;;
7821;SDS011;3956;50.558;9.678;2023-06-10T08:08:45;7.23;;;4.60;;
7821;SDS011;3956;50.558;9.678;2023-06-10T08:11:23;10.70;;;5.53;;
7821;SDS011;3956;50.558;9.678;2023-06-10T08:14:14;5.73;;;4.60;;
7821;SDS011;3956;50.558;9.678;2023-06-10T08:16:56;7.43;;;4.13;;
7821;SDS011;3956;50.558;9.678;2023-06-10T08:19:29;5.77;;;4.47;;
7821;SDS011;3956;50.558;9.678;2023-06-10T08:22:00;8.43;;;4.50;;
7821;SDS011;3956;50.558;9.678;2023-06-10T08:24:31;7.73;;;4.60;;
7821;SDS011;3956;50.558;9.678;2023-06-10T08:27:05;6.50;;;4.80;;
7821;SDS011;3956;50.558;9.678;2023-06-10T08:29:37;8.57;;;4.93;;
7821;SDS011;3956;50.558;9.678;2023-06-10T08:35:44;4.70;;;4.10;;
7821;SDS011;3956;50.558;9.678;2023-06-10T08:38:17;6.20;;;4.77;;
7821;SDS011;3956;50.558;9.678;2023-06-10T08:42:16;8.50;;;4.63;;
7821;SDS011;3956;50.558;9.678;2023-06-10T08:44:54;7.73;;;4.20;;
7821;SDS011;3956;50.558;9.678;2023-06-10T08:47:47;7.70;;;4.63;;
7821;SDS011;3956;50.558;9.678;2023-06-10T08:50:34;8.93;;;4.37;;
7821;SDS011;3956;50.558;9.678;2023-06-10T08:53:07;5.47;;;4.60;;
7821;SDS011;3956;50.558;9.678;2023-06-10T08:55:41;8.18;;;5.20;;
7821;SDS011;3956;50.558;9.678;2023-06-10T08:58:14;8.17;;;4.27;;
7821;SDS011;3956;50.558;9.678;2023-06-10T09:00:50;8.37;;;4.57;;
7821;SDS011;3956;50.558;9.678;2023-06-10T09:03:21;7.10;;;4.80;;
7821;SDS011;3956;50.558;9.678;2023-06-10T09:06:04;8.93;;;5.20;;
7821;SDS011;3956;50.558;9.678;2023-06-10T09:08:48;7.47;;;4.90;;
7821;SDS011;3956;50.558;9.678;2023-06-10T09:11:38;6.60;;;4.77;;
7821;SDS011;3956;50.558;9.678;2023-06-10T09:14:29;7.90;;;4.73;;
7821;SDS011;3956;50.558;9.678;2023-06-10T09:17:10;8.97;;;4.63;;
7821;SDS011;3956;50.558;9.678;2023-06-10T09:19:41;7.07;;;4.45;;
7821;SDS011;3956;50.558;9.678;2023-06-10T09:22:23;13.07;;;6.87;;
7821;SDS011;3956;50.558;9.678;2023-06-10T09:25:06;6.57;;;5.30;;
7821;SDS011;3956;50.558;9.678;2023-06-10T09:27:48;6.97;;;4.90;;
7821;SDS011;3956;50.558;9.678;2023-06-10T09:30:27;7.43;;;4.63;;
7821;SDS011;3956;50.558;9.678;2023-06-10T09:32:58;7.30;;;4.63;;
7821;SDS011;3956;50.558;9.678;2023-06-10T09:35:45;7.57;;;4.60;;
7821;SDS011;3956;50.558;9.678;2023-06-10T09:38:44;6.73;;;4.63;;
7821;SDS011;3956;50.558;9.678;2023-06-10T09:48:51;7.17;;;4.67;;
7821;SDS011;3956;50.558;9.678;2023-06-10T09:51:21;6.57;;;4.70;;
7821;SDS011;3956;50.558;9.678;2023-06-10T09:53:50;7.83;;;4.87;;
7821;SDS011;3956;50.558;9.678;2023-06-10T09:56:20;9.83;;;5.03;;
7821;SDS011;3956;50.558;9.678;2023-06-10T09:59:01;7.50;;;4.73;;
7821;SDS011;3956;50.558;9.678;2023-06-10T10:01:33;6.23;;;4.53;;
7821;SDS011;3956;50.558;9.678;2023-06-10T10:04:04;7.00;;;4.83;;
7821;SDS011;3956;50.558;9.678;2023-06-10T10:06:33;6.33;;;4.70;;
7821;SDS011;3956;50.558;9.678;2023-06-10T10:09:04;7.47;;;4.73;;
7821;SDS011;3956;50.558;9.678;2023-06-10T10:11:34;7.57;;;4.97;;
7821;SDS011;3956;50.558;9.678;2023-06-10T10:14:10;7.80;;;4.40;;
7821;SDS011;3956;50.558;9.678;2023-06-10T10:16:44;6.00;;;4.40;;
7821;SDS011;3956;50.558;9.678;2023-06-10T10:19:18;6.10;;;4.43;;
7821;SDS011;3956;50.558;9.678;2023-06-10T10:21:55;7.30;;;4.60;;
7821;SDS011;3956;50.558;9.678;2023-06-10T10:24:30;7.57;;;4.10;;
7821;SDS011;3956;50.558;9.678;2023-06-10T10:27:06;5.17;;;3.93;;
7821;SDS011;3956;50.558;9.678;2023-06-10T10:29:47;5.00;;;3.33;;
7821;SDS011;3956;50.558;9.678;2023-06-10T10:32:20;5.77;;;4.40;;
7821;SDS011;3956;50.558;9.678;2023-06-10T10:35:00;9.03;;;4.30;;
7821;SDS011;3956;50.558;9.678;2023-06-10T10:37:37;4.33;;;3.60;;
7821;SDS011;3956;50.558;9.678;2023-06-10T10:40:11;4.20;;;3.60;;
7821;SDS011;3956;50.558;9.678;2023-06-10T10:43:26;6.53;;;4.23;;
7821;SDS011;3956;50.558;9.678;2023-06-10T10:46:42;5.13;;;4.20;;
7821;SDS011;3956;50.558;9.678;2023-06-10T10:49:11;7.23;;;4.40;;
7821;SDS011;3956;50.558;9.678;2023-06-10T10:52:00;6.30;;;4.40;;
7821;SDS011;3956;50.558;9.678;2023-06-10T10:55:00;5.60;;;4.03;;
7821;SDS011;3956;50.558;9.678;2023-06-10T10:57:40;4.53;;;3.90;;
7821;SDS011;3956;50.558;9.678;2023-06-10T11:00:09;5.03;;;4.13;;
7821;SDS011;3956;50.558;9.678;2023-06-10T11:02:40;5.87;;;4.00;;
7821;SDS011;3956;50.558;9.678;2023-06-10T11:05:11;5.83;;;3.73;;
7821;SDS011;3956;50.558;9.678;2023-06-10T11:11:18;5.07;;;3.77;;
7821;SDS011;3956;50.558;9.678;2023-06-10T11:13:58;3.60;;;3.10;;
7821;SDS011;3956;50.558;9.678;2023-06-10T11:16:38;4.23;;;3.30;;
7821;SDS011;3956;50.558;9.678;2023-06-10T11:19:08;6.13;;;3.43;;
7821;SDS011;3956;50.558;9.678;2023-06-10T11:21:40;5.03;;;3.20;;
7821;SDS011;3956;50.558;9.678;2023-06-10T11:24:29;3.90;;;3.50;;
7821;SDS011;3956;50.558;9.678;2023-06-10T11:27:18;3.40;;;3.10;;
7821;SDS011;3956;50.558;9.678;2023-06-10T11:29:57;5.93;;;3.63;;
7821;SDS011;3956;50.558;9.678;2023-06-10T11:32:44;5.87;;;3.73;;
7821;SDS011;3956;50.558;9.678;2023-06-10T11:35:19;3.73;;;3.33;;
7821;SDS011;3956;50.558;9.678;2023-06-10T11:37:48;7.13;;;3.57;;
7821;SDS011;3956;50.558;9.678;2023-06-10T11:40:17;4.37;;;3.57;;
7821;SDS011;3956;50.558;9.678;2023-06-10T11:42:58;4.23;;;3.30;;
7821;SDS011;3956;50.558;9.678;2023-06-10T11:46:35;4.33;;;3.17;;
7821;SDS011;3956;50.558;9.678;2023-06-10T11:50:10;4.00;;;3.20;;
7821;SDS011;3956;50.558;9.678;2023-06-10T11:52:39;3.87;;;3.20;;
7821;SDS011;3956;50.558;9.678;2023-06-10T11:55:08;6.67;;;3.93;;
7821;SDS011;3956;50.558;9.678;2023-06-10T11:57:36;4.13;;;3.30;;
7821;SDS011;3956;50.558;9.678;2023-06-10T12:00:07;5.60;;;3.00;;
7821;SDS011;3956;50.558;9.678;2023-06-10T12:02:36;4.63;;;3.23;;
7821;SDS011;3956;50.558;9.678;2023-06-10T12:05:10;3.97;;;3.57;;
7821;SDS011;3956;50.558;9.678;2023-06-10T12:07:47;4.47;;;3.63;;
7821;SDS011;3956;50.558;9.678;2023-06-10T12:11:06;4.50;;;3.03;;
7821;SDS011;3956;50.558;9.678;2023-06-10T12:13:35;6.53;;;3.53;;
7821;SDS011;3956;50.558;9.678;2023-06-10T12:16:10;4.17;;;3.37;;
7821;SDS011;3956;50.558;9.678;2023-06-10T12:18:41;5.67;;;3.30;;
7821;SDS011;3956;50.558;9.678;2023-06-10T12:21:17;3.93;;;3.40;;
7821;SDS011;3956;50.558;9.678;2023-06-10T12:24:04;4.03;;;3.23;;
7821;SDS011;3956;50.558;9.678;2023-06-10T12:27:14;3.70;;;3.30;;
7821;SDS011;3956;50.558;9.678;2023-06-10T12:29:50;4.63;;;3.17;;
7821;SDS011;3956;50.558;9.678;2023-06-10T12:32:34;4.73;;;3.30;;
7821;SDS011;3956;50.558;9.678;2023-06-10T12:35:08;3.67;;;3.17;;
7821;SDS011;3956;50.558;9.678;2023-06-10T12:37:54;4.67;;;3.23;;
7821;SDS011;3956;50.558;9.678;2023-06-10T12:40:29;3.97;;;3.27;;
7821;SDS011;3956;50.558;9.678;2023-06-10T12:43:02;4.47;;;3.23;;
7821;SDS011;3956;50.558;9.678;2023-06-10T12:45:33;4.13;;;3.37;;
7821;SDS011;3956;50.558;9.678;2023-06-10T12:50:58;9.03;;;3.93;;
7821;SDS011;3956;50.558;9.678;2023-06-10T12:53:36;4.60;;;3.13;;
7821;SDS011;3956;50.558;9.678;2023-06-10T12:56:13;7.93;;;4.77;;
7821;SDS011;3956;50.558;9.678;2023-06-10T12:58:42;4.13;;;3.43;;
7821;SDS011;3956;50.558;9.678;2023-06-10T13:01:33;4.47;;;3.10;;
7821;SDS011;3956;50.558;9.678;2023-06-10T13:04:50;4.73;;;3.20;;
7821;SDS011;3956;50.558;9.678;2023-06-10T13:07:21;4.87;;;3.73;;
7821;SDS011;3956;50.558;9.678;2023-06-10T13:09:51;5.57;;;3.57;;
7821;SDS011;3956;50.558;9.678;2023-06-10T13:12:22;5.60;;;3.43;;
7821;SDS011;3956;50.558;9.678;2023-06-10T13:15:15;4.30;;;3.13;;
7821;SDS011;3956;50.558;9.678;2023-06-10T13:17:44;5.40;;;3.40;;
7821;SDS011;3956;50.558;9.678;2023-06-10T13:20:21;5.53;;;3.77;;
7821;SDS011;3956;50.558;9.678;2023-06-10T13:22:52;6.57;;;3.47;;
7821;SDS011;3956;50.558;9.678;2023-06-10T13:25:22;6.03;;;3.80;;
7821;SDS011;3956;50.558;9.678;2023-06-10T13:27:53;6.73;;;3.90;;
7821;SDS011;3956;50.558;9.678;2023-06-10T13:30:30;5.57;;;3.83;;
7821;SDS011;3956;50.558;9.678;2023-06-10T13:33:31;5.87;;;3.90;;
7821;SDS011;3956;50.558;9.678;2023-06-10T13:36:02;5.27;;;3.87;;
7821;SDS011;3956;50.558;9.678;2023-06-10T13:38:33;5.80;;;4.00;;
7821;SDS011;3956;50.558;9.678;2023-06-10T13:41:02;4.63;;;3.60;;
7821;SDS011;3956;50.558;9.678;2023-06-10T13:43:32;4.73;;;3.57;;
7821;SDS011;3956;50.558;9.678;2023-06-10T13:46:04;8.07;;;4.20;;
7821;SDS011;3956;50.558;9.678;2023-06-10T13:48:37;5.13;;;4.03;;
7821;SDS011;3956;50.558;9.678;2023-06-10T13:51:07;6.57;;;4.50;;
7821;SDS011;3956;50.558;9.678;2023-06-10T13:53:42;5.20;;;4.00;;
7821;SDS011;3956;50.558;9.678;2023-06-10T13:56:13;4.77;;;3.93;;
7821;SDS011;3956;50.558;9.678;2023-06-10T13:58:50;4.73;;;4.10;;
7821;SDS011;3956;50.558;9.678;2023-06-10T14:01:49;5.23;;;3.90;;
7821;SDS011;3956;50.558;9.678;2023-06-10T14:04:29;4.90;;;4.37;;
7821;SDS011;3956;50.558;9.678;2023-06-10T14:07:14;4.47;;;3.90;;
7821;SDS011;3956;50.558;9.678;2023-06-10T14:10:05;7.17;;;4.60;;
7821;SDS011;3956;50.558;9.678;2023-06-10T14:12:37;10.33;;;5.00;;
7821;SDS011;3956;50.558;9.678;2023-06-10T14:15:15;6.07;;;4.80;;
7821;SDS011;3956;50.558;9.678;2023-06-10T14:17:47;4.90;;;4.27;;
7821;SDS011;3956;50.558;9.678;2023-06-10T14:20:19;7.60;;;4.87;;
7821;SDS011;3956;50.558;9.678;2023-06-10T14:23:46;5.73;;;4.80;;
7821;SDS011;3956;50.558;9.678;2023-06-10T14:26:18;8.03;;;4.97;;
7821;SDS011;3956;50.558;9.678;2023-06-10T14:28:50;5.23;;;4.73;;
7821;SDS011;3956;50.558;9.678;2023-06-10T14:31:29;5.80;;;4.87;;
7821;SDS011;3956;50.558;9.678;2023-06-10T14:34:07;6.03;;;5.00;;
7821;SDS011;3956;50.558;9.678;2023-06-10T14:36:37;5.97;;;5.20;;
7821;SDS011;3956;50.558;9.678;2023-06-10T14:42:48;7.40;;;4.57;;
7821;SDS011;3956;50.558;9.678;2023-06-10T14:45:20;5.33;;;4.83;;
7821;SDS011;3956;50.558;9.678;2023-06-10T14:47:51;5.10;;;4.60;;
7821;SDS011;3956;50.558;9.678;2023-06-10T14:50:30;8.77;;;5.10;;
7821;SDS011;3956;50.558;9.678;2023-06-10T14:53:02;6.77;;;4.83;;
7821;SDS011;3956;50.558;9.678;2023-06-10T14:55:48;6.17;;;4.73;;
7821;SDS011;3956;50.558;9.678;2023-06-10T14:58:29;5.67;;;4.77;;
7821;SDS011;3956;50.558;9.678;2023-06-10T15:01:00;6.10;;;4.67;;
7821;SDS011;3956;50.558;9.678;2023-06-10T15:03:29;7.57;;;5.20;;
7821;SDS011;3956;50.558;9.678;2023-06-10T15:05:58;7.00;;;4.57;;
7821;SDS011;3956;50.558;9.678;2023-06-10T15:08:28;5.63;;;5.07;;
7821;SDS011;3956;50.558;9.678;2023-06-10T15:10:56;7.63;;;4.97;;
7821;SDS011;3956;50.558;9.678;2023-06-10T15:13:30;8.77;;;4.80;;
7821;SDS011;3956;50.558;9.678;2023-06-10T15:15:59;5.67;;;4.57;;
7821;SDS011;3956;50.558;9.678;2023-06-10T15:18:32;5.53;;;4.97;;
7821;SDS011;3956;50.558;9.678;2023-06-10T15:21:02;5.80;;;5.20;;
7821;SDS011;3956;50.558;9.678;2023-06-10T15:23:32;6.00;;;4.90;;
7821;SDS011;3956;50.558;9.678;2023-06-10T15:26:04;7.33;;;4.93;;
7821;SDS011;3956;50.558;9.678;2023-06-10T15:31:45;6.57;;;5.30;;
7821;SDS011;3956;50.558;9.678;2023-06-10T15:34:18;5.40;;;4.90;;
7821;SDS011;3956;50.558;9.678;2023-06-10T15:37:01;6.60;;;5.10;;
7821;SDS011;3956;50.558;9.678;2023-06-10T15:39:29;6.87;;;5.57;;
7821;SDS011;3956;50.558;9.678;2023-06-10T15:41:59;6.63;;;5.20;;
7821;SDS011;3956;50.558;9.678;2023-06-10T15:44:32;8.40;;;5.73;;
7821;SDS011;3956;50.558;9.678;2023-06-10T15:50:19;9.27;;;6.33;;
7821;SDS011;3956;50.558;9.678;2023-06-10T15:53:13;10.70;;;7.50;;
7821;SDS011;3956;50.558;9.678;2023-06-10T15:56:11;11.97;;;8.40;;
7821;SDS011;3956;50.558;9.678;2023-06-10T15:59:09;12.53;;;9.90;;
7821;SDS011;3956;50.558;9.678;2023-06-10T16:02:38;14.63;;;9.13;;
7821;SDS011;3956;50.558;9.678;2023-06-10T16:05:08;10.37;;;8.23;;
7821;SDS011;3956;50.558;9.678;2023-06-10T16:07:41;8.87;;;7.67;;
7821;SDS011;3956;50.558;9.678;2023-06-10T16:10:12;10.53;;;8.00;;
7821;SDS011;3956;50.558;9.678;2023-06-10T16:12:42;11.27;;;7.87;;
7821;SDS011;3956;50.558;9.678;2023-06-10T16:15:13;9.70;;;8.67;;
7821;SDS011;3956;50.558;9.678;2023-06-10T16:17:47;8.30;;;7.20;;
7821;SDS011;3956;50.558;9.678;2023-06-10T16:20:16;8.83;;;6.83;;
7821;SDS011;3956;50.558;9.678;2023-06-10T16:22:46;9.57;;;6.90;;
7821;SDS011;3956;50.558;9.678;2023-06-10T16:25:16;12.47;;;8.03;;
7821;SDS011;3956;50.558;9.678;2023-06-10T16:27:45;10.17;;;7.93;;
7821;SDS011;3956;50.558;9.678;2023-06-10T16:30:19;9.50;;;8.00;;
7821;SDS011;3956;50.558;9.678;2023-06-10T16:32:54;9.97;;;7.20;;
7821;SDS011;3956;50.558;9.678;2023-06-10T16:35:24;8.00;;;7.20;;
7821;SDS011;3956;50.558;9.678;2023-06-10T16:37:56;10.90;;;8.07;;
7821;SDS011;3956;50.558;9.678;2023-06-10T16:40:28;13.83;;;9.47;;
7821;SDS011;3956;50.558;9.678;2023-06-10T16:42:57;10.00;;;8.03;;